Yeager Airport
KCRW : now visible

Aeroporto :











RITROVATECI SU...

 
LOGIN :

Iscrizione | Disclaimer

   EN    FR    IT 

 









Sommario :    VFR   VFR Marginale   IFR   IFR Intensivo   IFR Molto Intensivo
Visibilità : 
Base nubi : 
>= 8 km
>= 3000ft
5 / 8 km
1000 / 3000 ft
1500m / 5 km
500 / 1000 ft
800 / 1500m
200 / 500 ft
< 800m
< 200 ft
Simboli :   Temporali  Nebbia  Neve Forte  Precipitazioni Forti  Vento > 20 kt






- Altitudine del aeroporto : 981 ft
- Codice IATA : CRW


KCRW - Yeager

ULTIMO METAR :
  • 271954Z VRB03KT 10SM BKN027 OVC035 06/00 A2984 RMK AO2 SLP108 T00610000 $

METARs OBSOLETI :
  • 271854Z 26004KT 10SM BKN018 OVC026 06/00 A2984 RMK AO2 SLP109 T00560000 $
  • 271754Z 26005KT 10SM BKN018 OVC026 05/01 A2985 RMK AO2 SLP115 T00500006 10056 20006 58008 $

TAF KCRW
Valido dal 27 a 18 ore il 28 a 18 ore UTC


271731Z 2718/2818 VRB03KT P6SM BKN021
FM272200 31004KT P6SM OVC020
FM272300 VRB03KT P6SM BKN018
FM280200 00000KT P6SM OVC017



MetMap, La meteo Aeronautica in un colpo d'occhio ! - Copyright ORBIFLY Dicembre 2007 - Disclaimer

ORBIFLY MET'MAP TEAM :

Programmazione e sviluppo : Alexandra Zaïnal
Concezione : Baudouin d'Aumeries
Aiuto per la programmazione : Marc-Olivier Méhu
Supporto tecnico e logistico : Manuel Goepfert
Aiuto per la traduzione : Arnaldo La Scala

Contatto : metmap@orbifly.com




FONTI E CREDITI :

   NOAA       Earth
Advisory